Time;durP1;ratioP1;P1;durP2;ratioP2;P2;SDS_P1;SDS_P2;PMS_P1;PMS_P2;Temp;Humidity;BMP_temperature;BMP_pressure;BME280_temperature;BME280_humidity;BME280_pressure;Samples;Min_cycle;Max_cycle;Signal;HPM_P1;HPM_P2
2022/03/04 00:00:21;;;;;;;33.33;14.68;;;2.10;99.90;;;;;;5091391;28;20462;-43
2022/03/04 00:02:46;;;;;;;28.38;14.27;;;2.00;99.90;;;;;;5091718;28;20036;-44
2022/03/04 00:05:12;;;;;;;38.78;15.93;;;2.10;99.90;;;;;;5091660;28;20032;-43
2022/03/04 00:07:38;;;;;;;28.30;14.93;;;2.10;99.90;;;;;;5091421;28;20071;-43
2022/03/04 00:10:04;;;;;;;32.33;15.27;;;2.20;99.90;;;;;;5091690;28;20036;-43
2022/03/04 00:12:29;;;;;;;32.78;15.35;;;2.00;99.90;;;;;;5091076;28;20044;-42
2022/03/04 00:14:56;;;;;;;27.42;14.68;;;2.00;99.90;;;;;;5090952;28;20088;-42
2022/03/04 00:17:21;;;;;;;34.30;15.40;;;1.80;99.90;;;;;;5091206;28;20043;-41
2022/03/04 00:19:47;;;;;;;31.63;15.32;;;1.90;99.90;;;;;;5091311;28;20036;-42
2022/03/04 00:22:14;;;;;;;29.98;14.57;;;1.80;99.90;;;;;;5089729;28;20048;-42
2022/03/04 00:24:40;;;;;;;32.58;15.45;;;1.80;99.90;;;;;;5091373;28;20095;-41
2022/03/04 00:27:06;;;;;;;33.80;15.55;;;1.80;99.90;;;;;;5091266;28;20059;-41
2022/03/04 00:29:32;;;;;;;30.85;15.15;;;1.70;99.90;;;;;;5090891;28;20039;-44
2022/03/04 00:31:57;;;;;;;27.75;15.00;;;1.80;99.90;;;;;;5089457;28;20040;-40
2022/03/04 00:34:25;;;;;;;31.65;14.75;;;1.70;99.90;;;;;;5089690;28;20105;-41
2022/03/04 00:36:51;;;;;;;31.35;15.52;;;1.70;99.90;;;;;;5090805;28;20090;-43
2022/03/04 00:39:17;;;;;;;33.10;15.13;;;1.60;99.90;;;;;;5091104;28;20532;-44
2022/03/04 00:41:43;;;;;;;31.08;14.70;;;1.50;99.90;;;;;;5089353;28;20066;-41
2022/03/04 00:44:09;;;;;;;33.22;14.45;;;1.50;99.90;;;;;;5090501;28;20394;-42
2022/03/04 00:46:36;;;;;;;31.08;15.20;;;1.60;99.90;;;;;;5091116;28;20074;-44
2022/03/04 00:49:03;;;;;;;29.42;14.23;;;1.40;99.90;;;;;;5088174;28;20044;-42
2022/03/04 00:51:29;;;;;;;27.75;13.48;;;1.60;99.90;;;;;;5088280;28;20488;-42
2022/03/04 00:53:55;;;;;;;32.17;13.82;;;1.50;99.90;;;;;;5089499;28;20024;-42
2022/03/04 00:56:21;;;;;;;27.30;14.27;;;1.30;99.90;;;;;;5090328;28;20031;-41
2022/03/04 00:58:46;;;;;;;30.65;15.02;;;1.50;99.90;;;;;;5090720;28;20383;-42
2022/03/04 01:01:12;;;;;;;29.58;14.68;;;1.30;99.90;;;;;;5090694;28;20478;-43
2022/03/04 01:03:38;;;;;;;29.70;13.95;;;1.30;99.90;;;;;;5089989;28;20438;-43
2022/03/04 01:06:06;;;;;;;28.77;13.95;;;1.20;99.90;;;;;;5090344;28;20043;-47
2022/03/04 01:08:32;;;;;;;26.63;13.57;;;1.20;99.90;;;;;;5090724;28;20490;-42
2022/03/04 01:10:57;;;;;;;29.00;13.95;;;1.20;99.90;;;;;;5089588;28;20038;-43
2022/03/04 01:13:23;;;;;;;26.95;13.13;;;1.20;99.90;;;;;;5088183;28;20036;-42
2022/03/04 01:15:49;;;;;;;24.52;12.70;;;1.20;99.90;;;;;;5090376;28;20055;-42
2022/03/04 01:18:16;;;;;;;28.55;14.10;;;1.00;99.90;;;;;;5087007;28;20040;-40
2022/03/04 01:20:42;;;;;;;24.67;12.75;;;1.10;99.90;;;;;;5090024;28;20032;-43
2022/03/04 01:23:08;;;;;;;28.75;13.10;;;1.20;99.90;;;;;;5089757;28;20078;-41
2022/03/04 01:25:34;;;;;;;25.92;12.40;;;1.00;99.90;;;;;;5090059;28;20047;-42
2022/03/04 01:28:01;;;;;;;28.55;12.85;;;0.90;99.90;;;;;;5089988;28;20047;-40
2022/03/04 01:30:27;;;;;;;26.45;13.10;;;1.10;99.90;;;;;;5090204;28;20111;-42
2022/03/04 01:32:52;;;;;;;27.80;13.65;;;0.90;99.90;;;;;;5089846;28;20115;-41
2022/03/04 01:35:18;;;;;;;25.27;13.20;;;0.80;99.90;;;;;;5089133;28;20040;-42
2022/03/04 01:37:44;;;;;;;25.50;12.85;;;0.90;99.90;;;;;;5089885;28;20036;-43
2022/03/04 01:40:11;;;;;;;25.63;12.18;;;0.80;99.90;;;;;;5090222;28;20391;-41
2022/03/04 01:42:37;;;;;;;22.17;11.77;;;0.80;99.90;;;;;;5090352;28;20035;-43
2022/03/04 01:45:06;;;;;;;24.23;11.93;;;0.70;99.90;;;;;;5089614;28;20104;-43
2022/03/04 01:47:32;;;;;;;24.30;11.88;;;0.90;99.90;;;;;;5090155;28;20032;-43
2022/03/04 01:49:58;;;;;;;25.58;12.13;;;0.70;99.90;;;;;;5089705;28;20032;-42
2022/03/04 01:52:23;;;;;;;24.95;12.65;;;0.70;99.90;;;;;;5090339;28;20043;-42
2022/03/04 01:54:49;;;;;;;24.45;11.60;;;0.60;99.90;;;;;;5089820;28;20116;-40
2022/03/04 01:57:15;;;;;;;26.17;13.45;;;0.70;99.90;;;;;;5089554;28;20038;-41
2022/03/04 01:59:41;;;;;;;25.52;12.77;;;0.60;99.90;;;;;;5090486;28;20101;-45
2022/03/04 02:02:07;;;;;;;24.60;12.32;;;0.60;99.90;;;;;;5094429;28;20450;-42
2022/03/04 02:04:34;;;;;;;23.98;12.02;;;0.50;99.90;;;;;;5093924;28;20032;-41
2022/03/04 02:07:00;;;;;;;23.52;11.60;;;0.70;99.90;;;;;;5093857;28;20032;-47
2022/03/04 02:09:26;;;;;;;22.10;10.95;;;0.50;99.90;;;;;;5093841;28;20047;-41
2022/03/04 02:11:52;;;;;;;24.10;12.00;;;0.40;99.90;;;;;;5093304;28;20475;-43
2022/03/04 02:14:17;;;;;;;24.08;12.10;;;0.60;99.90;;;;;;5093203;28;20032;-41
2022/03/04 02:16:52;;;;;;;23.63;11.82;;;0.60;99.90;;;;;;5093712;28;20044;-43
2022/03/04 02:19:18;;;;;;;;;;;0.40;99.90;;;;;;5094222;28;20036;-41
2022/03/04 02:22:03;;;;;;;24.02;11.20;;;0.50;99.90;;;;;;5093498;28;19915;-42
2022/03/04 02:24:31;;;;;;;20.17;10.57;;;0.60;99.90;;;;;;5093283;28;20044;-43
2022/03/04 02:27:00;;;;;;;23.40;11.50;;;0.50;99.90;;;;;;5093209;28;20028;-45
2022/03/04 02:29:26;;;;;;;22.80;11.63;;;0.30;99.90;;;;;;5093361;28;20027;-40
2022/03/04 02:31:53;;;;;;;24.48;11.85;;;0.50;99.90;;;;;;5093268;28;20040;-43
2022/03/04 02:34:19;;;;;;;24.77;11.60;;;0.40;99.90;;;;;;5093385;28;20471;-40
2022/03/04 02:36:46;;;;;;;24.27;11.35;;;0.20;99.90;;;;;;5091786;28;20117;-44
2022/03/04 02:39:12;;;;;;;24.48;11.18;;;0.30;99.90;;;;;;5093463;28;20038;-41
2022/03/04 02:41:38;;;;;;;22.48;10.75;;;0.20;99.90;;;;;;5093057;28;20040;-44
2022/03/04 02:44:06;;;;;;;25.35;11.02;;;0.30;99.90;;;;;;5093117;28;20040;-44
2022/03/04 02:46:32;;;;;;;23.58;12.00;;;0.30;99.90;;;;;;5092983;28;20040;-43
2022/03/04 02:48:58;;;;;;;24.33;12.02;;;0.40;99.90;;;;;;5092914;28;20039;-41
2022/03/04 02:51:24;;;;;;;24.88;11.45;;;0.40;99.90;;;;;;5090128;28;20043;-41
2022/03/04 02:53:50;;;;;;;23.67;11.32;;;0.30;99.90;;;;;;5093198;28;20121;-42
2022/03/04 02:56:16;;;;;;;25.27;11.85;;;0.30;99.90;;;;;;5093162;28;20040;-41
2022/03/04 02:58:43;;;;;;;23.90;11.70;;;0.10;99.90;;;;;;5092822;28;20038;-43
2022/03/04 03:01:09;;;;;;;25.27;11.65;;;0.20;99.90;;;;;;5092954;28;20082;-42
2022/03/04 03:03:35;;;;;;;23.98;11.85;;;0.20;99.90;;;;;;5091109;28;20062;-42
2022/03/04 03:06:00;;;;;;;24.92;11.57;;;0.10;99.90;;;;;;5093000;28;20028;-42
2022/03/04 03:08:28;;;;;;;26.23;12.10;;;-0.10;99.90;;;;;;5091202;28;20463;-41
2022/03/04 03:10:55;;;;;;;23.73;11.35;;;-0.10;99.90;;;;;;5092101;28;20089;-43
2022/03/04 03:13:21;;;;;;;26.27;12.43;;;-0.10;99.90;;;;;;5090330;28;20554;-44
2022/03/04 03:15:46;;;;;;;25.65;11.75;;;0.10;99.90;;;;;;5091105;28;20123;-41
2022/03/04 03:18:12;;;;;;;26.85;12.02;;;0.10;99.90;;;;;;5092633;28;20064;-44
2022/03/04 03:20:38;;;;;;;26.50;12.50;;;-0.20;99.90;;;;;;5092344;28;20063;-43
2022/03/04 03:23:03;;;;;;;29.10;12.23;;;-0.20;99.90;;;;;;5092318;28;20058;-43
2022/03/04 03:25:29;;;;;;;25.98;12.20;;;0.00;99.90;;;;;;5092279;28;20188;-42
2022/03/04 03:27:55;;;;;;;25.70;11.85;;;-0.10;99.90;;;;;;5091978;28;20471;-42
2022/03/04 03:30:21;;;;;;;28.08;12.60;;;0.00;99.90;;;;;;5092308;28;20035;-44
2022/03/04 03:32:47;;;;;;;31.30;12.90;;;-0.10;99.90;;;;;;5092022;28;20036;-43
2022/03/04 03:35:13;;;;;;;27.63;13.23;;;-0.20;99.90;;;;;;5092265;28;20063;-44
2022/03/04 03:37:39;;;;;;;26.17;12.68;;;-0.10;99.90;;;;;;5091078;28;20079;-43
2022/03/04 03:40:07;;;;;;;28.08;13.60;;;-0.20;99.90;;;;;;5091699;28;20036;-43
2022/03/04 03:42:33;;;;;;;28.25;13.18;;;-0.10;99.90;;;;;;5092084;28;20094;-43
2022/03/04 03:44:59;;;;;;;28.70;13.13;;;-0.10;99.90;;;;;;5091161;28;20074;-44
2022/03/04 03:47:25;;;;;;;28.92;13.23;;;-0.20;99.90;;;;;;5091787;28;20509;-44
2022/03/04 03:49:51;;;;;;;29.17;12.82;;;-0.40;99.90;;;;;;5092120;28;20039;-41
2022/03/04 03:52:16;;;;;;;27.67;12.93;;;-0.30;99.90;;;;;;5091752;28;20571;-41
2022/03/04 03:54:42;;;;;;;28.98;13.77;;;-0.20;99.90;;;;;;5091973;28;20036;-46
2022/03/04 03:57:10;;;;;;;30.75;14.10;;;-0.40;99.90;;;;;;5091268;28;20044;-41
2022/03/04 03:59:36;;;;;;;29.48;13.32;;;-0.30;99.90;;;;;;5091486;28;20036;-42
2022/03/04 04:02:02;;;;;;;29.05;14.07;;;-0.40;99.90;;;;;;5091439;28;20047;-42
2022/03/04 04:04:33;;;;;;;33.28;14.85;;;-0.50;99.90;;;;;;5090300;28;20092;-43
2022/03/04 04:07:03;;;;;;;28.95;13.65;;;-0.50;99.90;;;;;;5090676;28;20412;-43
2022/03/04 04:09:29;;;;;;;31.83;14.68;;;-0.30;99.90;;;;;;5091461;28;20039;-41
2022/03/04 04:11:55;;;;;;;28.27;13.73;;;-0.60;99.90;;;;;;5091362;28;20044;-42
2022/03/04 04:14:21;;;;;;;28.83;13.85;;;-0.60;99.90;;;;;;5089685;28;20477;-43
2022/03/04 04:16:46;;;;;;;32.97;14.50;;;-0.60;99.90;;;;;;5090386;28;20400;-42
2022/03/04 04:19:12;;;;;;;31.90;15.82;;;-0.50;99.90;;;;;;5089808;28;20492;-40
2022/03/04 04:21:38;;;;;;;29.98;13.88;;;-0.60;99.90;;;;;;5091084;28;20048;-42
2022/03/04 04:24:05;;;;;;;31.25;14.10;;;-0.70;99.90;;;;;;5090793;28;20198;-42
2022/03/04 04:26:32;;;;;;;34.78;15.10;;;-0.50;99.90;;;;;;5089932;28;20051;-42
2022/03/04 04:28:58;;;;;;;36.45;15.80;;;-0.50;99.90;;;;;;5090766;28;20040;-41
2022/03/04 04:31:24;;;;;;;32.33;14.57;;;-0.60;99.90;;;;;;5091197;28;20051;-42
2022/03/04 04:33:50;;;;;;;33.10;15.95;;;-0.80;99.90;;;;;;5091235;28;20043;-43
2022/03/04 04:36:16;;;;;;;31.40;15.65;;;-0.50;99.90;;;;;;5090991;28;20137;-42
2022/03/04 04:38:42;;;;;;;38.92;16.77;;;-0.80;99.90;;;;;;5091062;28;20040;-42
2022/03/04 04:41:08;;;;;;;34.85;15.80;;;-0.60;99.90;;;;;;5090726;28;20036;-41
2022/03/04 04:43:35;;;;;;;37.33;16.63;;;-1.30;99.90;;;;;;5090189;28;20283;-45
2022/03/04 04:46:01;;;;;;;33.08;15.65;;;-0.80;99.90;;;;;;5091033;28;20044;-43
2022/03/04 04:48:27;;;;;;;35.20;16.80;;;-0.80;99.90;;;;;;5090500;28;20032;-42
2022/03/04 04:50:52;;;;;;;37.50;17.45;;;-0.70;99.90;;;;;;5090670;28;20085;-44
2022/03/04 04:53:18;;;;;;;36.83;17.52;;;-1.00;99.90;;;;;;5089403;28;20429;-47
2022/03/04 04:55:44;;;;;;;37.05;17.05;;;-1.10;99.90;;;;;;5090756;28;20139;-44
2022/03/04 04:58:10;;;;;;;36.15;16.70;;;-1.00;99.90;;;;;;5089428;28;20032;-42
2022/03/04 05:00:35;;;;;;;39.10;17.70;;;-0.90;99.90;;;;;;5090875;28;20387;-40
2022/03/04 05:03:01;;;;;;;39.38;18.55;;;-0.90;99.90;;;;;;5090455;28;20050;-42
2022/03/04 05:05:27;;;;;;;40.78;18.55;;;-1.10;99.90;;;;;;5090191;28;20089;-44
2022/03/04 05:07:52;;;;;;;41.00;18.60;;;-1.20;99.90;;;;;;5090682;28;20039;-42
2022/03/04 05:10:18;;;;;;;35.05;17.67;;;-1.10;99.90;;;;;;5088531;28;20046;-41
2022/03/04 05:12:44;;;;;;;41.00;19.20;;;-0.90;99.90;;;;;;5090011;28;20054;-41
2022/03/04 05:15:10;;;;;;;39.42;17.63;;;-1.00;99.90;;;;;;5090084;28;20514;-42
2022/03/04 05:17:36;;;;;;;47.33;19.80;;;-1.10;99.90;;;;;;5090356;28;20024;-43
2022/03/04 05:20:03;;;;;;;43.47;19.15;;;-1.20;99.90;;;;;;5088059;28;20063;-43
2022/03/04 05:22:28;;;;;;;42.90;19.48;;;-1.10;99.90;;;;;;5090419;28;20044;-43
2022/03/04 05:24:54;;;;;;;48.10;19.45;;;-1.30;99.90;;;;;;5090039;28;20491;-46
2022/03/04 05:27:19;;;;;;;48.35;19.67;;;-1.20;99.90;;;;;;5089553;28;20115;-43
2022/03/04 05:29:45;;;;;;;43.50;19.92;;;-1.10;99.90;;;;;;5088882;28;20044;-43
2022/03/04 05:32:11;;;;;;;42.92;19.55;;;-1.40;99.90;;;;;;5090227;28;20044;-41
2022/03/04 05:34:41;;;;;;;47.70;21.65;;;-1.20;99.90;;;;;;5089479;28;20463;-43
2022/03/04 05:37:07;;;;;;;48.28;20.25;;;-1.10;99.90;;;;;;5090417;28;20067;-44
2022/03/04 05:39:32;;;;;;;45.67;21.13;;;-1.20;99.90;;;;;;5089921;28;20032;-44
2022/03/04 05:41:58;;;;;;;48.63;21.38;;;-1.10;99.90;;;;;;5090512;28;20043;-43
2022/03/04 05:44:25;;;;;;;44.15;20.48;;;-1.50;99.90;;;;;;5088303;28;20036;-45
2022/03/04 05:46:50;;;;;;;49.78;22.50;;;-1.30;99.90;;;;;;5089863;28;20451;-43
2022/03/04 05:49:16;;;;;;;53.00;21.73;;;-1.30;99.90;;;;;;5089791;28;20146;-41
2022/03/04 05:51:41;;;;;;;49.72;21.35;;;-1.40;99.90;;;;;;5090156;28;20040;-42
2022/03/04 05:54:07;;;;;;;46.72;21.95;;;-1.50;99.90;;;;;;5089798;28;20047;-45
2022/03/04 05:56:33;;;;;;;53.97;22.48;;;-1.20;99.90;;;;;;5089738;28;20028;-44
2022/03/04 05:58:58;;;;;;;53.15;22.58;;;-1.50;99.90;;;;;;5088941;28;20491;-39
2022/03/04 06:01:24;;;;;;;50.65;22.38;;;-1.40;99.90;;;;;;5090037;28;20410;-43
2022/03/04 06:03:50;;;;;;;54.40;23.30;;;-1.50;99.90;;;;;;5089843;28;20087;-42
2022/03/04 06:06:15;;;;;;;55.30;24.00;;;-1.30;99.90;;;;;;5089807;28;20069;-41
2022/03/04 06:08:41;;;;;;;51.72;23.38;;;-1.30;99.90;;;;;;5090065;28;20742;-41
2022/03/04 06:11:08;;;;;;;52.65;22.95;;;-1.30;99.90;;;;;;5089439;28;20032;-41
2022/03/04 06:13:37;;;;;;;53.50;23.25;;;-1.30;99.90;;;;;;5089541;28;20040;-42
2022/03/04 06:16:03;;;;;;;57.70;24.52;;;-1.40;99.90;;;;;;5088554;28;20126;-41
2022/03/04 06:18:29;;;;;;;62.97;25.55;;;-1.30;99.90;;;;;;5089640;28;20433;-44
2022/03/04 06:20:55;;;;;;;64.45;26.25;;;-1.60;99.90;;;;;;5089554;28;20107;-42
2022/03/04 06:23:21;;;;;;;56.15;24.63;;;-1.40;99.90;;;;;;5089363;28;20059;-41
2022/03/04 06:25:47;;;;;;;63.33;26.23;;;-1.60;99.90;;;;;;5089771;28;20105;-45
2022/03/04 06:28:13;;;;;;;60.50;25.38;;;-1.20;99.90;;;;;;5089756;28;20040;-41
2022/03/04 06:30:39;;;;;;;62.13;27.60;;;-1.50;99.90;;;;;;5088132;28;20044;-43
2022/03/04 06:35:51;;;;;;;58.20;25.35;;;-1.20;99.90;;;;;;5087113;28;20098;-41
2022/03/04 06:38:17;;;;;;;62.78;26.17;;;-1.20;99.90;;;;;;5122320;28;20068;-45
2022/03/04 06:40:44;;;;;;;61.47;26.52;;;-1.30;99.90;;;;;;5089944;28;20093;-43
2022/03/04 06:43:10;;;;;;;65.45;27.40;;;-1.50;99.90;;;;;;5089410;28;20442;-43
2022/03/04 06:45:39;;;;;;;68.35;27.35;;;-1.40;99.90;;;;;;5089133;28;20040;-42
2022/03/04 06:48:05;;;;;;;64.75;25.95;;;-1.20;99.90;;;;;;5091679;28;20040;-41
2022/03/04 06:50:31;;;;;;;69.53;26.60;;;-1.30;99.90;;;;;;5092993;28;20039;-45
2022/03/04 06:52:56;;;;;;;63.50;26.88;;;-1.10;99.90;;;;;;5091199;28;20046;-41
2022/03/04 06:55:22;;;;;;;59.55;26.10;;;-1.40;99.90;;;;;;5088520;28;20075;-41
2022/03/04 06:57:51;;;;;;;60.45;25.42;;;-1.20;99.90;;;;;;5090128;28;20055;-44
2022/03/04 07:00:17;;;;;;;54.80;24.67;;;-1.40;99.90;;;;;;5092704;28;20062;-43
2022/03/04 07:02:43;;;;;;;65.88;26.65;;;-1.30;99.90;;;;;;5093060;28;20036;-42
2022/03/04 07:05:09;;;;;;;65.90;24.88;;;-1.00;99.90;;;;;;5092810;28;20372;-43
2022/03/04 07:07:35;;;;;;;60.67;26.50;;;-1.30;99.90;;;;;;5091400;28;20044;-43
2022/03/04 07:10:03;;;;;;;59.08;25.58;;;-1.30;99.90;;;;;;5092744;28;20048;-40
2022/03/04 07:12:29;;;;;;;66.72;25.77;;;-1.10;99.90;;;;;;5092542;28;20036;-41
2022/03/04 07:14:54;;;;;;;63.47;24.67;;;-1.00;99.90;;;;;;5092059;28;20046;-41
2022/03/04 07:17:20;;;;;;;64.95;28.02;;;-1.20;99.90;;;;;;5092406;28;20395;-43
2022/03/04 07:19:46;;;;;;;66.72;27.00;;;-0.90;99.90;;;;;;5084246;28;20391;-43
2022/03/04 07:22:11;;;;;;;63.83;25.80;;;-1.10;99.90;;;;;;5092014;28;20047;-43
2022/03/04 07:24:37;;;;;;;68.32;27.73;;;-1.10;99.90;;;;;;5091133;28;20044;-42
2022/03/04 07:27:04;;;;;;;65.65;26.25;;;-1.10;99.90;;;;;;5082086;28;20071;-42
2022/03/04 07:29:30;;;;;;;64.10;25.48;;;-1.00;99.90;;;;;;5085850;28;20518;-43
2022/03/04 07:31:56;;;;;;;69.03;28.15;;;-0.80;99.90;;;;;;5081700;28;20040;-43
2022/03/04 07:34:25;;;;;;;66.55;27.92;;;-1.00;99.90;;;;;;5084662;28;20039;-42
2022/03/04 07:36:54;;;;;;;67.18;27.08;;;-0.90;99.90;;;;;;5077931;28;20063;-40
2022/03/04 07:39:20;;;;;;;65.25;27.92;;;-1.00;99.90;;;;;;5078769;28;20040;-46
2022/03/04 07:41:48;;;;;;;64.05;26.92;;;-0.70;99.90;;;;;;5090360;28;20510;-43
2022/03/04 07:44:15;;;;;;;63.88;26.38;;;-0.80;99.90;;;;;;5091446;28;20093;-43
2022/03/04 07:46:41;;;;;;;62.83;26.77;;;-1.00;99.90;;;;;;5090296;28;20043;-41
2022/03/04 07:49:07;;;;;;;68.72;27.70;;;-0.70;99.90;;;;;;5088555;28;20040;-41
2022/03/04 07:51:33;;;;;;;74.93;29.13;;;-0.50;99.90;;;;;;5089604;28;20497;-43
2022/03/04 07:53:59;;;;;;;63.15;26.60;;;-0.90;99.90;;;;;;5090747;28;20195;-41
2022/03/04 07:56:25;;;;;;;67.97;27.42;;;-0.60;99.90;;;;;;5091648;28;20372;-44
2022/03/04 07:58:51;;;;;;;68.20;28.17;;;-0.50;99.90;;;;;;5090936;28;20047;-43
2022/03/04 08:01:16;;;;;;;68.85;28.45;;;-0.70;99.90;;;;;;5091638;28;20036;-48
2022/03/04 08:03:46;;;;;;;58.80;25.20;;;-0.60;99.90;;;;;;5091027;28;20036;-43
2022/03/04 08:06:13;;;;;;;64.63;27.25;;;-0.80;99.90;;;;;;5091543;28;20044;-43
2022/03/04 08:08:39;;;;;;;62.28;26.17;;;-0.60;99.90;;;;;;5090921;28;20098;-43
2022/03/04 08:11:05;;;;;;;71.93;28.17;;;-0.70;99.90;;;;;;5091659;28;20032;-42
2022/03/04 08:13:31;;;;;;;67.78;28.05;;;-0.40;99.90;;;;;;5089717;28;20097;-43
2022/03/04 08:15:57;;;;;;;68.45;28.27;;;-0.30;99.90;;;;;;5090850;28;20039;-42
2022/03/04 08:18:23;;;;;;;65.43;26.73;;;-0.20;99.90;;;;;;5091249;28;20028;-42
2022/03/04 08:20:49;;;;;;;75.43;29.13;;;-0.50;99.90;;;;;;5091090;28;20024;-43
2022/03/04 08:23:14;;;;;;;69.70;28.10;;;-0.40;99.90;;;;;;5091136;28;20075;-44
2022/03/04 08:25:40;;;;;;;63.30;27.85;;;-0.10;99.90;;;;;;5090949;28;20139;-42
2022/03/04 08:28:06;;;;;;;58.33;25.90;;;-0.20;99.90;;;;;;5090961;28;20122;-45
2022/03/04 08:30:32;;;;;;;62.15;26.67;;;0.00;99.90;;;;;;5091346;28;20039;-43
2022/03/04 08:32:58;;;;;;;68.30;28.30;;;-0.10;99.90;;;;;;5090955;28;20459;-42
2022/03/04 08:35:24;;;;;;;78.28;29.52;;;-0.30;99.90;;;;;;5090817;28;20055;-40
2022/03/04 08:37:49;;;;;;;71.97;29.17;;;-0.30;99.90;;;;;;5091030;28;20040;-42
2022/03/04 08:40:15;;;;;;;69.38;29.17;;;-0.20;99.90;;;;;;5090843;28;20364;-41
2022/03/04 08:42:42;;;;;;;71.45;29.55;;;0.20;99.90;;;;;;5091033;28;20071;-41
2022/03/04 08:45:09;;;;;;;69.63;28.60;;;0.10;99.90;;;;;;5090125;28;20081;-44
2022/03/04 08:47:36;;;;;;;70.53;28.70;;;0.20;99.90;;;;;;5090441;28;20040;-42
2022/03/04 08:50:02;;;;;;;69.53;29.60;;;0.00;99.90;;;;;;5090645;28;20402;-40
2022/03/04 08:52:28;;;;;;;78.30;29.30;;;0.20;99.90;;;;;;5090331;28;20085;-41
2022/03/04 08:54:54;;;;;;;73.30;29.95;;;0.40;99.90;;;;;;5090659;28;20518;-42
2022/03/04 08:57:20;;;;;;;66.80;29.25;;;0.20;99.90;;;;;;5090632;28;20058;-44
2022/03/04 08:59:45;;;;;;;66.78;27.15;;;0.40;99.90;;;;;;5090454;28;20131;-44
2022/03/04 09:02:11;;;;;;;69.35;30.42;;;0.30;99.90;;;;;;5090627;28;20106;-43
2022/03/04 09:04:37;;;;;;;71.70;29.63;;;0.30;99.90;;;;;;5090457;28;20042;-43
2022/03/04 09:07:06;;;;;;;72.25;31.33;;;0.80;99.90;;;;;;5090301;28;20048;-45
2022/03/04 09:09:33;;;;;;;67.97;29.10;;;1.00;99.90;;;;;;5089529;28;20042;-46
2022/03/04 09:11:59;;;;;;;64.68;29.58;;;0.70;99.90;;;;;;5090238;28;20035;-43
2022/03/04 09:14:25;;;;;;;64.45;28.38;;;1.00;99.90;;;;;;5090059;28;20036;-41
2022/03/04 09:16:52;;;;;;;75.32;30.17;;;1.10;99.90;;;;;;5090073;28;20062;-45
2022/03/04 09:19:19;;;;;;;67.25;29.33;;;0.90;99.90;;;;;;5088109;28;20032;-44
2022/03/04 09:21:45;;;;;;;61.58;26.83;;;1.00;99.90;;;;;;5090128;28;20043;-44
2022/03/04 09:24:11;;;;;;;64.55;28.23;;;1.30;99.90;;;;;;5071694;28;20050;-45
2022/03/04 09:26:37;;;;;;;61.75;27.35;;;1.00;99.90;;;;;;5089981;28;20107;-40
2022/03/04 09:29:03;;;;;;;60.80;27.13;;;1.20;99.90;;;;;;5090009;28;20455;-41
2022/03/04 09:31:28;;;;;;;57.67;26.55;;;1.30;99.90;;;;;;5088639;28;20044;-44
2022/03/04 09:33:54;;;;;;;61.53;27.23;;;1.50;99.90;;;;;;5088642;28;20036;-42
2022/03/04 09:36:20;;;;;;;60.38;27.02;;;1.50;99.90;;;;;;5090007;28;20062;-42
2022/03/04 09:38:46;;;;;;;60.20;26.55;;;1.60;99.90;;;;;;5089853;28;20401;-42
2022/03/04 09:41:12;;;;;;;62.38;28.00;;;1.40;99.90;;;;;;5089778;28;20100;-44
2022/03/04 09:43:39;;;;;;;57.05;27.02;;;1.60;99.90;;;;;;5089953;28;20047;-46
2022/03/04 09:46:05;;;;;;;61.42;27.15;;;1.50;99.90;;;;;;5088824;28;20048;-45
2022/03/04 09:48:33;;;;;;;55.53;25.63;;;1.60;99.90;;;;;;5089817;28;20040;-51
2022/03/04 09:50:59;;;;;;;53.78;24.40;;;1.70;99.90;;;;;;5088999;28;20125;-44
2022/03/04 09:53:26;;;;;;;53.58;24.75;;;1.80;99.90;;;;;;5089763;28;20048;-42
2022/03/04 09:55:52;;;;;;;55.67;25.67;;;1.80;99.90;;;;;;5089488;28;20054;-43
2022/03/04 09:58:19;;;;;;;57.45;27.38;;;2.10;99.90;;;;;;5089852;28;20035;-45
2022/03/04 10:00:46;;;;;;;58.30;26.83;;;1.80;99.90;;;;;;5089749;28;20036;-42
2022/03/04 10:03:22;;;;;;;61.05;26.67;;;1.90;99.90;;;;;;5089898;28;20032;-47
2022/03/04 10:05:52;;;;;;;58.28;26.00;;;2.00;99.90;;;;;;5089892;28;20046;-42
2022/03/04 10:08:19;;;;;;;59.88;26.15;;;2.20;99.90;;;;;;5089766;28;20040;-43
2022/03/04 10:10:55;;;;;;;53.47;25.77;;;2.40;99.90;;;;;;5089656;28;20052;-46
2022/03/04 10:13:44;;;;;;;53.15;25.88;;;2.40;99.90;;;;;;5090019;28;20048;-43
2022/03/04 10:16:22;;;;;;;55.70;23.90;;;2.60;99.90;;;;;;5088615;28;20035;-44
2022/03/04 10:19:15;;;;;;;53.35;24.77;;;2.50;99.90;;;;;;5089605;28;20414;-43
2022/03/04 10:21:43;;;;;;;55.75;25.60;;;2.60;99.90;;;;;;5086464;28;20048;-42
2022/03/04 10:24:09;;;;;;;52.90;24.75;;;2.60;99.90;;;;;;5093076;28;20144;-40
2022/03/04 10:26:35;;;;;;;48.92;23.92;;;3.00;99.90;;;;;;5092229;28;20097;-42
2022/03/04 10:29:16;;;;;;;54.55;25.08;;;3.10;99.90;;;;;;5093283;28;20044;-42
2022/03/04 10:32:10;;;;;;;50.47;23.17;;;3.10;99.90;;;;;;5093150;28;20047;-43
2022/03/04 10:34:53;;;;;;;50.00;24.52;;;3.40;99.90;;;;;;5093439;28;20032;-44
2022/03/04 10:37:41;;;;;;;49.78;23.48;;;3.20;99.90;;;;;;5093445;28;20092;-45
2022/03/04 10:40:32;;;;;;;50.42;23.60;;;3.40;99.90;;;;;;5093572;28;20032;-43
2022/03/04 10:42:59;;;;;;;45.20;22.23;;;3.60;99.90;;;;;;5091131;28;20097;-45
2022/03/04 10:45:30;;;;;;;47.08;23.77;;;3.90;99.90;;;;;;5092708;28;20048;-43
2022/03/04 10:47:59;;;;;;;47.53;22.48;;;3.90;99.90;;;;;;5093212;28;20112;-44
2022/03/04 10:50:35;;;;;;;46.25;22.70;;;3.80;99.90;;;;;;5092911;28;20104;-41
2022/03/04 10:53:04;;;;;;;46.05;21.85;;;4.10;99.90;;;;;;5092826;28;20127;-44
2022/03/04 10:55:34;;;;;;;45.78;22.83;;;4.50;99.90;;;;;;5093118;28;20036;-45
2022/03/04 10:58:05;;;;;;;45.22;22.67;;;4.80;99.90;;;;;;5093174;28;20036;-43
2022/03/04 11:00:45;;;;;;;43.08;22.20;;;4.80;99.90;;;;;;5092848;28;20040;-43
2022/03/04 11:03:17;;;;;;;41.13;22.35;;;5.10;99.90;;;;;;5092866;28;20039;-47
2022/03/04 11:05:42;;;;;;;42.03;21.45;;;5.00;99.90;;;;;;5092735;28;20047;-43
2022/03/04 11:08:09;;;;;;;43.30;21.20;;;5.10;99.90;;;;;;5092630;28;20372;-44
2022/03/04 11:10:35;;;;;;;39.92;21.17;;;5.20;99.90;;;;;;5092707;28;20040;-45
2022/03/04 11:13:07;;;;;;;41.13;21.70;;;5.20;99.90;;;;;;5092511;28;20768;-46
2022/03/04 11:15:34;;;;;;;42.17;22.75;;;5.20;99.90;;;;;;5092151;28;20047;-46
2022/03/04 11:18:06;;;;;;;43.10;22.15;;;5.30;99.90;;;;;;5092722;28;20479;-46
2022/03/04 11:20:32;;;;;;;42.95;22.67;;;5.40;99.90;;;;;;5092664;28;20067;-45
2022/03/04 11:22:58;;;;;;;43.15;23.70;;;5.20;99.90;;;;;;5092079;28;20087;-41
2022/03/04 11:25:24;;;;;;;41.33;23.23;;;5.30;99.90;;;;;;5092153;28;20345;-45
2022/03/04 11:27:52;;;;;;;45.17;23.83;;;5.70;99.90;;;;;;5092322;28;20501;-43
2022/03/04 11:30:31;;;;;;;41.67;22.65;;;5.80;99.90;;;;;;5091973;28;20097;-44
2022/03/04 11:33:03;;;;;;;42.30;22.52;;;5.90;99.90;;;;;;5091466;28;20068;-44
2022/03/04 11:35:59;;;;;;;42.70;23.90;;;6.00;99.90;;;;;;5092057;28;20085;-43
2022/03/04 11:38:43;;;;;;;42.85;21.88;;;6.10;99.90;;;;;;5091078;28;20488;-43
2022/03/04 11:41:10;;;;;;;43.05;22.85;;;6.10;99.90;;;;;;5092076;28;20094;-45
2022/03/04 11:43:49;;;;;;;40.53;21.65;;;6.60;99.90;;;;;;5091187;28;20046;-43
2022/03/04 11:46:22;;;;;;;39.75;21.15;;;6.90;99.90;;;;;;5089665;28;20039;-42
2022/03/04 11:49:08;;;;;;;41.10;22.27;;;7.10;99.90;;;;;;5091834;28;20507;-46
2022/03/04 11:51:34;;;;;;;43.85;22.98;;;7.20;99.90;;;;;;5091482;28;20047;-45
2022/03/04 11:54:22;;;;;;;39.28;21.30;;;7.40;99.90;;;;;;5090151;28;20093;-46
2022/03/04 11:56:52;;;;;;;40.17;22.08;;;7.60;99.90;;;;;;5091742;28;20120;-45
2022/03/04 11:59:20;;;;;;;41.72;23.15;;;7.30;99.90;;;;;;5091593;28;20119;-45
2022/03/04 12:01:45;;;;;;;45.95;24.98;;;7.40;99.90;;;;;;5090531;28;20121;-43
2022/03/04 12:04:16;;;;;;;44.17;23.35;;;7.20;99.90;;;;;;5091589;28;20077;-44
2022/03/04 12:07:03;;;;;;;48.22;25.75;;;7.40;99.90;;;;;;5091563;28;20040;-45
2022/03/04 12:09:30;;;;;;;42.70;23.38;;;7.60;99.90;;;;;;5091121;28;20036;-41
2022/03/04 12:12:12;;;;;;;40.70;21.80;;;7.70;99.90;;;;;;5091344;28;20047;-42
2022/03/04 12:15:15;;;;;;;44.63;23.10;;;7.70;99.90;;;;;;5089836;28;20732;-41
2022/03/04 12:18:03;;;;;;;42.88;23.15;;;7.60;99.90;;;;;;5091414;28;20032;-42
2022/03/04 12:20:41;;;;;;;40.28;22.83;;;7.90;99.90;;;;;;5091213;28;20040;-44
2022/03/04 12:23:12;;;;;;;42.33;22.80;;;7.90;99.90;;;;;;5091172;28;20060;-43
2022/03/04 12:25:53;;;;;;;38.60;21.58;;;7.80;99.90;;;;;;5091021;28;20441;-45
2022/03/04 12:28:24;;;;;;;39.10;21.38;;;8.30;99.90;;;;;;5091102;28;20047;-46
2022/03/04 12:31:19;;;;;;;39.42;21.70;;;8.30;99.90;;;;;;5090813;28;20039;-45
2022/03/04 12:33:54;;;;;;;38.58;21.15;;;8.70;99.90;;;;;;5089813;28;20589;-44
2022/03/04 12:36:21;;;;;;;40.10;21.63;;;8.70;99.90;;;;;;5091083;28;20494;-44
2022/03/04 12:38:48;;;;;;;38.05;21.40;;;8.50;99.90;;;;;;5089550;28;20036;-44